Terminal Aerodrome Forecast
Issued by NWS Indianapolis, IN

Home | Current Version | Previous Version | Text Only | Print | Product List | Glossary On
Versions: 1 2 3 4 5 6 7 8 9 10 11 12 13 14 15 16 17 18 19 20 21 22 23 24 25
022
FTUS43 KIND 220521
TAFIND
TAF
KIND 220521Z 2206/2312 16008KT P6SM SCT250 WS020/19035KT
     FM221500 16009KT P6SM BKN100 WS020/19030KT
     FM221600 17010G19KT P6SM BKN110
     FM222100 17010KT P6SM VCSH BKN080
     FM230000 17007KT 6SM -SHRA BKN045
     FM230600 18004KT P6SM SHRA OVC015=

USA.gov is the U.S. government's official web portal to all federal, state and local government web resources and services.